Time;durP1;ratioP1;P1;durP2;ratioP2;P2;SDS_P1;SDS_P2;PMS_P1;PMS_P2;Temp;Humidity;BMP_temperature;BMP_pressure;BME280_temperature;BME280_humidity;BME280_pressure;Samples;Min_cycle;Max_cycle;Signal;HPM_P1;HPM_P2
2023/05/14 00:01:33;;;;;;;;;;;;;;;;;;5091590;28;19908;-68
2023/05/14 00:03:59;;;;;;;;;;;;;;;;;;5091319;28;19923;-68
2023/05/14 00:06:25;;;;;;;;;;;;;;;;;;5090810;28;19999;-68
2023/05/14 00:08:51;;;;;;;;;;;;;;;;;;5091172;28;19919;-68
2023/05/14 00:11:17;;;;;;;;;;;;;;;;;;5091047;28;19908;-68
2023/05/14 00:13:43;;;;;;;;;;;;;;;;;;5090611;28;19915;-68
2023/05/14 00:17:18;;;;;;;;;;;;;;;;;;5091694;27;19916;-68
2023/05/14 00:19:44;;;;;;;;;;;;;;;;;;5091344;28;20352;-68
2023/05/14 00:22:10;;;;;;;;;;;;;;;;;;5090867;28;19969;-68
2023/05/14 00:25:09;;;;;;;;;;;;;;;;;;5091416;27;19923;-68
2023/05/14 00:29:29;;;;;;;;;;;;;;;;;;5091058;27;19923;-68
2023/05/14 00:34:06;;;;;;;;;;;;;;;;;;5092081;27;20280;-68
2023/05/14 00:36:32;;;;;;;;;;;;;;;;;;5091051;28;19999;-67
2023/05/14 00:39:17;;;;;;;;;;;;;;;;;;5111693;27;20352;-68
2023/05/14 00:41:43;;;;;;;;;;;;;;;;;;5111327;28;19999;-68
2023/05/14 00:46:18;;;;;;;;;;;;;;;;;;5092047;27;19923;-68
2023/05/14 00:48:44;;;;;;;;;;;;;;;;;;5091216;28;19916;-69
2023/05/14 00:51:10;;;;;;;;;;;;;;;;;;5091327;28;19961;-68
2023/05/14 00:53:36;;;;;;;;;;;;;;;;;;5090022;28;19931;-68
2023/05/14 00:56:02;;;;;;;;;;;;;;;;;;5091162;28;20361;-68
2023/05/14 00:58:28;;;;;;;;;;;;;;;;;;5091237;28;19913;-68
2023/05/14 01:00:54;;;;;;;;;;;;;;;;;;5091152;28;19909;-68
2023/05/14 01:03:20;;;;;;;;;;;;;;;;;;5090624;28;19908;-68
2023/05/14 01:05:46;;;;;;;;;;;;;;;;;;5090965;28;19923;-68
2023/05/14 01:08:12;;;;;;;;;;;;;;;;;;5089653;28;19909;-69
2023/05/14 01:10:38;;;;;;;;;;;;;;;;;;5090451;28;19912;-68
2023/05/14 01:13:04;;;;;;;;;;;;;;;;;;5091040;28;20396;-68
2023/05/14 01:17:01;;;;;;;;;;;;;;;;;;5112019;27;19916;-68
2023/05/14 01:19:27;;;;;;;;;;;;;;;;;;5110328;28;19912;-68
2023/05/14 01:21:53;;;;;;;;;;;;;;;;;;5111598;28;19912;-68
2023/05/14 01:24:18;;;;;;;;;;;;;;;;;;5111345;28;19954;-68
2023/05/14 01:26:44;;;;;;;;;;;;;;;;;;5111551;28;19908;-68
2023/05/14 01:29:11;;;;;;;;;;;;;;;;;;5111549;28;19952;-68
2023/05/14 01:31:37;;;;;;;;;;;;;;;;;;5111048;28;20322;-68
2023/05/14 01:34:02;;;;;;;;;;;;;;;;;;5111789;28;19909;-68
2023/05/14 01:36:28;;;;;;;;;;;;;;;;;;5111303;28;20010;-68
2023/05/14 01:38:55;;;;;;;;;;;;;;;;;;5109774;28;19908;-68
2023/05/14 01:41:21;;;;;;;;;;;;;;;;;;5111574;28;19908;-68
2023/05/14 01:43:47;;;;;;;;;;;;;;;;;;5111314;28;19912;-68
2023/05/14 01:46:13;;;;;;;;;;;;;;;;;;5111064;28;19915;-68
2023/05/14 01:48:40;;;;;;;;;;;;;;;;;;5111744;28;20317;-68
2023/05/14 01:51:51;;;;;;;;;;;;;;;;;;5071226;28;19924;-68
2023/05/14 01:54:17;;;;;;;;;;;;;;;;;;5071151;28;20348;-68
2023/05/14 01:56:43;;;;;;;;;;;;;;;;;;5071089;28;19913;-68
2023/05/14 01:59:31;;;;;;;;;;;;;;;;;;5071144;28;20273;-68
2023/05/14 02:01:57;;;;;;;;;;;;;;;;;;5069845;28;19999;-68
2023/05/14 02:04:23;;;;;;;;;;;;;;;;;;5071088;28;20414;-68
2023/05/14 02:06:49;;;;;;;;;;;;;;;;;;5070938;28;19962;-68
2023/05/14 02:09:15;;;;;;;;;;;;;;;;;;5069744;28;19916;-69
2023/05/14 02:11:41;;;;;;;;;;;;;;;;;;5071161;28;20373;-68
2023/05/14 02:14:07;;;;;;;;;;;;;;;;;;5070519;28;19909;-69
2023/05/14 02:16:33;;;;;;;;;;;;;;;;;;5070851;28;19916;-69
2023/05/14 02:18:59;;;;;;;;;;;;;;;;;;5070794;28;19940;-68
2023/05/14 02:21:55;;;;;;;;;;;;;;;;;;5091118;28;20394;-68
2023/05/14 02:24:58;;;;;;;;;;;;;;;;;;5091598;27;20291;-68
2023/05/14 02:27:24;;;;;;;;;;;;;;;;;;5091012;28;20007;-68
2023/05/14 02:29:50;;;;;;;;;;;;;;;;;;5091280;28;20322;-68
2023/05/14 02:32:16;;;;;;;;;;;;;;;;;;5091280;28;19952;-69
2023/05/14 02:34:42;;;;;;;;;;;;;;;;;;5091043;28;19973;-69
2023/05/14 02:37:08;;;;;;;;;;;;;;;;;;5091758;28;19913;-69
2023/05/14 02:39:34;;;;;;;;;;;;;;;;;;5091107;28;19995;-69
2023/05/14 02:42:00;;;;;;;;;;;;;;;;;;5090676;28;19916;-69
2023/05/14 02:45:16;;;;;;;;;;;;;;;;;;5173789;27;19915;-69
2023/05/14 02:47:42;;;;;;;;;;;;;;;;;;5173739;27;19911;-68
2023/05/14 02:50:08;;;;;;;;;;;;;;;;;;5173233;27;20431;-68
2023/05/14 02:52:34;;;;;;;;;;;;;;;;;;5155045;27;19915;-68
2023/05/14 02:55:00;;;;;;;;;;;;;;;;;;5154531;27;19913;-68
2023/05/14 02:57:26;;;;;;;;;;;;;;;;;;5154860;27;19910;-68
2023/05/14 02:59:52;;;;;;;;;;;;;;;;;;5173385;27;19914;-68
2023/05/14 03:02:18;;;;;;;;;;;;;;;;;;5173080;27;19914;-68
2023/05/14 03:04:44;;;;;;;;;;;;;;;;;;5173580;27;19947;-68
2023/05/14 03:07:10;;;;;;;;;;;;;;;;;;5173404;27;19907;-68
2023/05/14 03:09:36;;;;;;;;;;;;;;;;;;5154196;27;19972;-68
2023/05/14 03:12:02;;;;;;;;;;;;;;;;;;5154606;27;19918;-68
2023/05/14 03:14:28;;;;;;;;;;;;;;;;;;5173209;27;19907;-68
2023/05/14 03:16:53;;;;;;;;;;;;;;;;;;5172799;27;19907;-68
2023/05/14 03:19:19;;;;;;;;;;;;;;;;;;5173446;27;19914;-68
2023/05/14 03:21:45;;;;;;;;;;;;;;;;;;5173087;27;19907;-68
2023/05/14 03:24:11;;;;;;;;;;;;;;;;;;5172549;27;19915;-68
2023/05/14 03:26:37;;;;;;;;;;;;;;;;;;5173133;27;19907;-68
2023/05/14 03:29:03;;;;;;;;;;;;;;;;;;5172928;27;19907;-69
2023/05/14 03:31:30;;;;;;;;;;;;;;;;;;5172637;27;19947;-69
2023/05/14 03:33:56;;;;;;;;;;;;;;;;;;5172878;27;19907;-68
2023/05/14 03:36:22;;;;;;;;;;;;;;;;;;5172806;27;19907;-68
2023/05/14 03:38:48;;;;;;;;;;;;;;;;;;5153728;27;19918;-68
2023/05/14 03:41:14;;;;;;;;;;;;;;;;;;5172689;27;19911;-68
2023/05/14 03:43:40;;;;;;;;;;;;;;;;;;5153788;27;20374;-68
2023/05/14 03:46:06;;;;;;;;;;;;;;;;;;5172287;27;19907;-68
2023/05/14 03:48:31;;;;;;;;;;;;;;;;;;5172597;27;19907;-68
2023/05/14 03:50:57;;;;;;;;;;;;;;;;;;5172525;27;19949;-68
2023/05/14 03:53:57;;;;;;;;;;;;;;;;;;5091802;27;19923;-68
2023/05/14 03:56:23;;;;;;;;;;;;;;;;;;5091330;28;19912;-67
2023/05/14 03:58:49;;;;;;;;;;;;;;;;;;5089586;28;19966;-67
2023/05/14 04:01:14;;;;;;;;;;;;;;;;;;5091311;28;19912;-68
2023/05/14 04:03:40;;;;;;;;;;;;;;;;;;5091232;28;19908;-68
2023/05/14 04:06:06;;;;;;;;;;;;;;;;;;5090820;28;19909;-67
2023/05/14 04:08:32;;;;;;;;;;;;;;;;;;5091124;28;19908;-68
2023/05/14 04:10:58;;;;;;;;;;;;;;;;;;5090942;28;19996;-68
2023/05/14 04:13:24;;;;;;;;;;;;;;;;;;5090787;28;19916;-68
2023/05/14 04:15:50;;;;;;;;;;;;;;;;;;5090996;28;19916;-68
2023/05/14 04:18:16;;;;;;;;;;;;;;;;;;5091050;28;20042;-68
2023/05/14 04:20:42;;;;;;;;;;;;;;;;;;5090639;28;19908;-68
2023/05/14 04:23:08;;;;;;;;;;;;;;;;;;5090821;28;19962;-68
2023/05/14 04:25:34;;;;;;;;;;;;;;;;;;5091123;28;19939;-68
2023/05/14 04:28:00;;;;;;;;;;;;;;;;;;5090341;28;19909;-68
2023/05/14 04:30:26;;;;;;;;;;;;;;;;;;5090787;28;19913;-68
2023/05/14 04:32:52;;;;;;;;;;;;;;;;;;5090840;28;20403;-68
2023/05/14 04:35:19;;;;;;;;;;;;;;;;;;5090174;28;20202;-68
2023/05/14 04:37:45;;;;;;;;;;;;;;;;;;5090962;28;19908;-68
2023/05/14 04:40:11;;;;;;;;;;;;;;;;;;5090562;28;20364;-68
2023/05/14 04:42:37;;;;;;;;;;;;;;;;;;5090164;28;20314;-68
2023/05/14 04:45:04;;;;;;;;;;;;;;;;;;5090611;28;19909;-68
2023/05/14 04:47:30;;;;;;;;;;;;;;;;;;5090858;28;19908;-68
2023/05/14 04:49:56;;;;;;;;;;;;;;;;;;5090686;28;19918;-67
2023/05/14 04:52:22;;;;;;;;;;;;;;;;;;5090081;28;20372;-67
2023/05/14 04:54:48;;;;;;;;;;;;;;;;;;5089934;28;19909;-68
2023/05/14 04:57:14;;;;;;;;;;;;;;;;;;5090526;28;19915;-67
2023/05/14 04:59:40;;;;;;;;;;;;;;;;;;5090152;28;20003;-68
2023/05/14 05:02:06;;;;;;;;;;;;;;;;;;5089721;28;19912;-68
2023/05/14 05:04:32;;;;;;;;;;;;;;;;;;5080963;28;19913;-68
2023/05/14 05:06:58;;;;;;;;;;;;;;;;;;5076547;28;19908;-68
2023/05/14 05:09:24;;;;;;;;;;;;;;;;;;5076291;28;19951;-68
2023/05/14 05:11:50;;;;;;;;;;;;;;;;;;5076459;28;19913;-68
2023/05/14 05:14:16;;;;;;;;;;;;;;;;;;5076355;28;19916;-68
2023/05/14 05:16:42;;;;;;;;;;;;;;;;;;5074774;28;19909;-68
2023/05/14 05:19:08;;;;;;;;;;;;;;;;;;5076295;28;19915;-68
2023/05/14 05:21:34;;;;;;;;;;;;;;;;;;5076159;28;19908;-68
2023/05/14 05:24:00;;;;;;;;;;;;;;;;;;5075820;28;19908;-68
2023/05/14 05:26:26;;;;;;;;;;;;;;;;;;5076129;28;20001;-68
2023/05/14 05:28:52;;;;;;;;;;;;;;;;;;5076054;28;19908;-68
2023/05/14 05:31:18;;;;;;;;;;;;;;;;;;5075653;28;19914;-68
2023/05/14 05:33:44;;;;;;;;;;;;;;;;;;5075965;28;20019;-68
2023/05/14 05:36:10;;;;;;;;;;;;;;;;;;5075966;28;19909;-68
2023/05/14 05:38:36;;;;;;;;;;;;;;;;;;5075588;28;19912;-67
2023/05/14 05:41:02;;;;;;;;;;;;;;;;;;5075904;28;20425;-68
2023/05/14 05:43:28;;;;;;;;;;;;;;;;;;5075892;28;19912;-68
2023/05/14 05:45:54;;;;;;;;;;;;;;;;;;5075384;28;19912;-68
2023/05/14 05:48:20;;;;;;;;;;;;;;;;;;5075772;28;20288;-68
2023/05/14 05:50:46;;;;;;;;;;;;;;;;;;5075686;28;19919;-68
2023/05/14 05:53:12;;;;;;;;;;;;;;;;;;5075090;28;20015;-68
2023/05/14 05:55:38;;;;;;;;;;;;;;;;;;5075565;28;19999;-68
2023/05/14 05:58:04;;;;;;;;;;;;;;;;;;5075146;28;19908;-68
2023/05/14 06:00:30;;;;;;;;;;;;;;;;;;5075719;28;20433;-68
2023/05/14 06:02:56;;;;;;;;;;;;;;;;;;5075588;28;19916;-68
2023/05/14 06:05:22;;;;;;;;;;;;;;;;;;5075004;28;20280;-68
2023/05/14 06:07:48;;;;;;;;;;;;;;;;;;5075420;28;20364;-68
2023/05/14 06:10:14;;;;;;;;;;;;;;;;;;5075290;28;19909;-68
2023/05/14 06:12:40;;;;;;;;;;;;;;;;;;5074734;28;19942;-70
2023/05/14 06:15:06;;;;;;;;;;;;;;;;;;5074844;28;20022;-70
2023/05/14 06:17:32;;;;;;;;;;;;;;;;;;5074861;28;19909;-70
2023/05/14 06:19:58;;;;;;;;;;;;;;;;;;5074676;28;19916;-70
2023/05/14 06:22:24;;;;;;;;;;;;;;;;;;5075199;28;19910;-70
2023/05/14 06:24:50;;;;;;;;;;;;;;;;;;5075062;28;20384;-70
2023/05/14 06:27:16;;;;;;;;;;;;;;;;;;5073399;28;19912;-70
2023/05/14 06:29:42;;;;;;;;;;;;;;;;;;5074954;28;19908;-70
2023/05/14 06:32:08;;;;;;;;;;;;;;;;;;5074818;28;20325;-70
2023/05/14 06:34:34;;;;;;;;;;;;;;;;;;5074713;28;19970;-70
2023/05/14 06:37:01;;;;;;;;;;;;;;;;;;5074790;28;19909;-71
2023/05/14 06:39:27;;;;;;;;;;;;;;;;;;5074874;28;19908;-69
2023/05/14 06:41:53;;;;;;;;;;;;;;;;;;5074187;28;19913;-70
2023/05/14 06:44:19;;;;;;;;;;;;;;;;;;5074893;28;19908;-70
2023/05/14 06:46:45;;;;;;;;;;;;;;;;;;5074633;28;20011;-70
2023/05/14 06:49:11;;;;;;;;;;;;;;;;;;5074176;28;19970;-70
2023/05/14 06:51:37;;;;;;;;;;;;;;;;;;5074185;28;19908;-69
2023/05/14 06:54:03;;;;;;;;;;;;;;;;;;5074692;28;19992;-67
2023/05/14 06:56:29;;;;;;;;;;;;;;;;;;5074005;28;19958;-68
2023/05/14 06:58:55;;;;;;;;;;;;;;;;;;5073182;28;19992;-68
2023/05/14 07:01:43;;;;;;;;;;;;;;;;;;5111709;27;19912;-68
2023/05/14 07:04:29;;;;;;;;;;;;;;;;;;5092325;27;19923;-68
2023/05/14 07:06:55;;;;;;;;;;;;;;;;;;5091525;28;20351;-68
2023/05/14 07:09:21;;;;;;;;;;;;;;;;;;5090879;28;19909;-69
2023/05/14 07:14:04;;;;;;;;;;;;;;;;;;5092139;27;19922;-68
2023/05/14 07:16:30;;;;;;;;;;;;;;;;;;5091264;28;20003;-70
2023/05/14 07:18:56;;;;;;;;;;;;;;;;;;5091543;28;19954;-68
2023/05/14 07:21:22;;;;;;;;;;;;;;;;;;5091452;28;19944;-68
2023/05/14 07:23:48;;;;;;;;;;;;;;;;;;5090594;28;19909;-69
2023/05/14 07:26:14;;;;;;;;;;;;;;;;;;5090640;28;19919;-69
2023/05/14 07:30:01;;;;;;;;;;;;;;;;;;5090616;27;19912;-68
2023/05/14 07:32:26;;;;;;;;;;;;;;;;;;5089565;28;19947;-68
2023/05/14 07:34:52;;;;;;;;;;;;;;;;;;5090674;28;19948;-68
2023/05/14 07:37:18;;;;;;;;;;;;;;;;;;5090461;28;19966;-68
2023/05/14 07:39:44;;;;;;;;;;;;;;;;;;5090736;28;19908;-67
2023/05/14 07:42:10;;;;;;;;;;;;;;;;;;5091159;28;19916;-68
2023/05/14 07:44:36;;;;;;;;;;;;;;;;;;5090278;28;20371;-68
2023/05/14 07:47:03;;;;;;;;;;;;;;;;;;5090827;28;20398;-69
2023/05/14 07:51:53;;;;;;;;;;;;;;;;;;5090481;27;20273;-68
2023/05/14 07:56:44;;;;;;;;;;;;;;;;;;5111737;27;20371;-68
2023/05/14 07:59:10;;;;;;;;;;;;;;;;;;5110877;28;19916;-68
2023/05/14 08:01:36;;;;;;;;;;;;;;;;;;5109818;28;20300;-68
2023/05/14 08:04:02;;;;;;;;;;;;;;;;;;5109820;28;20346;-68
2023/05/14 08:07:21;;;;;;;;;;;;;;;;;;5131788;27;19998;-68
2023/05/14 08:14:12;;;;;;;;;;;;;;;;;;5111888;27;19915;-68
2023/05/14 08:17:39;;;;;;;;;;;;;;;;;;5091331;27;19923;-68
2023/05/14 08:20:06;;;;;;;;;;;;;;;;;;5090348;28;19912;-68
2023/05/14 08:22:32;;;;;;;;;;;;;;;;;;5090663;28;20399;-69
2023/05/14 08:25:09;;;;;;;;;;;;;;;;;;5111320;27;20399;-68
2023/05/14 08:29:53;;;;;;;;;;;;;;;;;;5091419;28;19916;-68
2023/05/14 08:34:36;;;;;;;;;;;;;;;;;;5090357;27;20233;-68
2023/05/14 08:38:47;;;;;;;;;;;;;;;;;;5091430;28;19919;-68
2023/05/14 08:42:16;;;;;;;;;;;;;;;;;;5111310;27;19920;-68
2023/05/14 08:45:47;;;;;;;;;;;;;;;;;;5091608;27;19916;-68
2023/05/14 08:48:12;;;;;;;;;;;;;;;;;;5090409;28;19999;-68
2023/05/14 08:53:05;;;;;;;;;;;;;;;;;;5132189;27;20344;-68
2023/05/14 08:55:32;;;;;;;;;;;;;;;;;;5131340;28;19943;-68
2023/05/14 09:04:33;;;;;;;;;;;;;;;;;;5152454;27;19916;-68
2023/05/14 09:07:28;;;;;;;;;;;;;;;;;;5090919;27;19926;-68
2023/05/14 09:11:09;;;;;;;;;;;;;;;;;;5111800;27;19912;-71
2023/05/14 09:15:20;;;;;;;;;;;;;;;;;;5090993;27;19919;-68
2023/05/14 09:19:51;;;;;;;;;;;;;;;;;;5091655;27;19917;-68
2023/05/14 09:22:17;;;;;;;;;;;;;;;;;;5090412;28;19917;-69
2023/05/14 09:24:43;;;;;;;;;;;;;;;;;;5090908;28;19914;-69
2023/05/14 09:27:55;;;;;;;;;;;;;;;;;;5091192;27;19916;-68
2023/05/14 09:31:22;;;;;;;;;;;;;;;;;;5111423;27;19916;-68
2023/05/14 09:36:31;;;;;;;;;;;;;;;;;;5131317;27;19918;-68
2023/05/14 09:40:55;;;;;;;;;;;;;;;;;;5111773;27;20371;-69
2023/05/14 09:45:40;;;;;;;;;;;;;;;;;;5111616;27;19916;-68
2023/05/14 09:50:06;;;;;;;;;;;;;;;;;;5111341;27;20003;-69
2023/05/14 09:52:32;;;;;;;;;;;;;;;;;;5111195;28;20010;-69
2023/05/14 09:55:22;;;;;;;;;;;;;;;;;;5091139;28;19916;-68
2023/05/14 09:57:48;;;;;;;;;;;;;;;;;;5090590;28;20003;-68
2023/05/14 10:02:06;;;;;;;;;;;;;;;;;;5111835;27;20356;-69
2023/05/14 10:04:32;;;;;;;;;;;;;;;;;;5110877;28;20007;-69
2023/05/14 10:09:15;;;;;;;;;;;;;;;;;;5152616;27;20010;-68
2023/05/14 10:11:41;;;;;;;;;;;;;;;;;;5151899;27;20368;-69
2023/05/14 10:14:07;;;;;;;;;;;;;;;;;;5152300;27;19914;-69
2023/05/14 10:16:34;;;;;;;;;;;;;;;;;;5152256;27;19986;-69
2023/05/14 10:20:28;;;;;;;;;;;;;;;;;;5173305;27;20343;-68
2023/05/14 10:27:50;;;;;;;;;;;;;;;;;;5152253;27;19998;-68
2023/05/14 10:30:16;;;;;;;;;;;;;;;;;;5152284;27;19943;-68
2023/05/14 10:37:16;;;;;;;;;;;;;;;;;;5070920;28;20379;-68
2023/05/14 10:41:05;;;;;;;;;;;;;;;;;;5090544;27;19912;-68
2023/05/14 10:43:31;;;;;;;;;;;;;;;;;;5090783;28;19987;-69
2023/05/14 10:46:10;;;;;;;;;;;;;;;;;;5091145;27;19916;-68
2023/05/14 10:48:36;;;;;;;;;;;;;;;;;;5090538;28;20011;-68
2023/05/14 10:51:02;;;;;;;;;;;;;;;;;;5090818;28;19912;-70
2023/05/14 10:55:13;;;;;;;;;;;;;;;;;;5172983;27;19911;-69
2023/05/14 10:57:39;;;;;;;;;;;;;;;;;;5173558;27;20354;-69
2023/05/14 11:00:06;;;;;;;;;;;;;;;;;;5173122;27;19968;-69
2023/05/14 11:05:05;;;;;;;;;;;;;;;;;;5111716;27;19916;-69
2023/05/14 11:07:52;;;;;;;;;;;;;;;;;;5090586;27;19923;-68
2023/05/14 11:10:18;;;;;;;;;;;;;;;;;;5090897;28;19995;-69
2023/05/14 11:15:32;;;;;;;;;;;;;;;;;;5090686;28;19923;-69
2023/05/14 11:21:07;;;;;;;;;;;;;;;;;;5091470;27;19927;-69
2023/05/14 11:26:56;;;;;;;;;;;;;;;;;;5111813;27;20279;-68
2023/05/14 11:29:22;;;;;;;;;;;;;;;;;;5110853;28;20007;-68
2023/05/14 11:34:28;;;;;;;;;;;;;;;;;;5091047;27;19917;-69
2023/05/14 11:38:23;;;;;;;;;;;;;;;;;;5091594;27;19913;-70
2023/05/14 11:40:49;;;;;;;;;;;;;;;;;;5090885;28;19913;-68
2023/05/14 11:43:14;;;;;;;;;;;;;;;;;;5090533;28;20261;-68
2023/05/14 11:45:40;;;;;;;;;;;;;;;;;;5090937;28;20280;-70
2023/05/14 11:48:06;;;;;;;;;;;;;;;;;;5090786;28;19952;-69
2023/05/14 11:51:44;;;;;;;;;;;;;;;;;;5090483;28;19919;-69
2023/05/14 11:55:46;;;;;;;;;;;;;;;;;;5152464;27;20323;-68
2023/05/14 12:03:02;;;;;;;;;;;;;;;;;;5091597;28;19922;-68
2023/05/14 12:08:26;;;;;;;;;;;;;;;;;;5152422;27;19911;-69
2023/05/14 12:10:52;;;;;;;;;;;;;;;;;;5151978;27;19950;-69
2023/05/14 12:13:19;;;;;;;;;;;;;;;;;;5152214;27;19998;-69
2023/05/14 12:15:45;;;;;;;;;;;;;;;;;;5152323;27;19935;-69
2023/05/14 12:19:10;;;;;;;;;;;;;;;;;;5090725;27;19923;-68
2023/05/14 12:21:36;;;;;;;;;;;;;;;;;;5090747;28;19919;-68
2023/05/14 12:25:58;;;;;;;;;;;;;;;;;;5090589;27;19920;-68
2023/05/14 12:28:43;;;;;;;;;;;;;;;;;;5091195;28;19923;-68
2023/05/14 12:31:37;;;;;;;;;;;;;;;;;;5091103;27;20291;-68
2023/05/14 12:34:03;;;;;;;;;;;;;;;;;;5090478;28;20007;-68
2023/05/14 12:36:29;;;;;;;;;;;;;;;;;;5090800;28;20318;-69
2023/05/14 12:38:55;;;;;;;;;;;;;;;;;;5090538;28;19913;-69
2023/05/14 12:41:21;;;;;;;;;;;;;;;;;;5090715;28;19917;-69
2023/05/14 12:44:43;;;;;;;;;;;;;;;;;;5091640;27;20382;-68
2023/05/14 12:49:20;;;;;;;;;;;;;;;;;;5091259;28;19919;-70
2023/05/14 12:51:46;;;;;;;;;;;;;;;;;;5090913;28;20378;-68
2023/05/14 12:54:14;;;;;;;;;;;;;;;;;;5090393;28;19908;-68
2023/05/14 12:57:14;;;;;;;;;;;;;;;;;;5111981;27;20338;-70
2023/05/14 12:59:40;;;;;;;;;;;;;;;;;;5111322;28;19912;-69
2023/05/14 13:02:06;;;;;;;;;;;;;;;;;;5110746;28;20341;-69
2023/05/14 13:06:42;;;;;;;;;;;;;;;;;;5111534;27;20303;-68
2023/05/14 13:10:07;;;;;;;;;;;;;;;;;;5111724;27;19916;-69
2023/05/14 13:14:08;;;;;;;;;;;;;;;;;;5131386;27;19915;-68
2023/05/14 13:16:34;;;;;;;;;;;;;;;;;;5131843;28;19918;-69
2023/05/14 13:19:00;;;;;;;;;;;;;;;;;;5131897;28;19908;-69
2023/05/14 13:21:26;;;;;;;;;;;;;;;;;;5131418;28;19999;-69
2023/05/14 13:23:52;;;;;;;;;;;;;;;;;;5131611;28;19907;-68
2023/05/14 13:26:18;;;;;;;;;;;;;;;;;;5131542;28;20376;-69
2023/05/14 13:32:32;;;;;;;;;;;;;;;;;;5091135;27;20307;-68
2023/05/14 13:34:58;;;;;;;;;;;;;;;;;;5091468;28;20003;-68
2023/05/14 13:39:37;;;;;;;;;;;;;;;;;;5111666;27;20398;-69
2023/05/14 13:42:03;;;;;;;;;;;;;;;;;;5111023;28;20002;-69
2023/05/14 13:49:16;;;;;;;;;;;;;;;;;;5111416;27;19916;-69
2023/05/14 13:51:42;;;;;;;;;;;;;;;;;;5111160;28;20002;-68
2023/05/14 13:54:42;;;;;;;;;;;;;;;;;;5091339;27;20295;-68
2023/05/14 13:59:20;;;;;;;;;;;;;;;;;;5090780;28;19922;-68
2023/05/14 14:04:35;;;;;;;;;;;;;;;;;;5090718;27;20406;-68
2023/05/14 14:07:01;;;;;;;;;;;;;;;;;;5090787;28;20011;-68
2023/05/14 14:11:18;;;;;;;;;;;;;;;;;;5090308;27;19912;-68
2023/05/14 14:13:44;;;;;;;;;;;;;;;;;;5090795;28;20349;-69
2023/05/14 14:16:09;;;;;;;;;;;;;;;;;;5090714;28;19908;-69
2023/05/14 14:18:35;;;;;;;;;;;;;;;;;;5090383;28;19921;-69
2023/05/14 14:21:01;;;;;;;;;;;;;;;;;;5090728;28;19947;-69
2023/05/14 14:26:21;;;;;;;;;;;;;;;;;;5110900;27;19916;-68
2023/05/14 14:30:30;;;;;;;;;;;;;;;;;;5091653;28;19916;-68
2023/05/14 14:35:54;;;;;;;;;;;;;;;;;;5071072;28;19917;-70
2023/05/14 14:38:20;;;;;;;;;;;;;;;;;;5070459;28;19995;-70
2023/05/14 14:40:46;;;;;;;;;;;;;;;;;;5070652;28;19916;-70
2023/05/14 14:43:42;;;;;;;;;;;;;;;;;;5111548;27;20299;-70
2023/05/14 14:53:07;;;;;;;;;;;;;;;;;;5172874;27;19915;-68
2023/05/14 14:55:33;;;;;;;;;;;;;;;;;;5173271;27;19922;-68
2023/05/14 14:57:59;;;;;;;;;;;;;;;;;;5173121;27;19914;-69
2023/05/14 15:01:51;;;;;;;;;;;;;;;;;;5152594;27;20006;-68
2023/05/14 15:05:26;;;;;;;;;;;;;;;;;;5090915;28;19923;-68
2023/05/14 15:07:52;;;;;;;;;;;;;;;;;;5090556;28;19999;-68
2023/05/14 15:10:17;;;;;;;;;;;;;;;;;;5090635;28;19908;-68
2023/05/14 15:14:54;;;;;;;;;;;;;;;;;;5110812;27;19923;-70
2023/05/14 15:17:20;;;;;;;;;;;;;;;;;;5111246;28;19912;-68
2023/05/14 15:21:35;;;;;;;;;;;;;;;;;;5111008;27;19916;-68
2023/05/14 15:24:01;;;;;;;;;;;;;;;;;;5111444;28;20002;-68
2023/05/14 15:27:28;;;;;;;;;;;;;;;;;;5091121;27;19916;-68
2023/05/14 15:29:54;;;;;;;;;;;;;;;;;;5090345;28;20015;-69
2023/05/14 15:32:20;;;;;;;;;;;;;;;;;;5090649;28;19908;-69
2023/05/14 15:34:46;;;;;;;;;;;;;;;;;;5090353;28;19938;-69
2023/05/14 15:39:31;;;;;;;;;;;;;;;;;;5111923;27;19916;-68
2023/05/14 15:41:57;;;;;;;;;;;;;;;;;;5111139;28;20339;-68
2023/05/14 15:44:23;;;;;;;;;;;;;;;;;;5111142;28;19908;-70
2023/05/14 15:49:11;;;;;;;;;;;;;;;;;;5070317;28;19917;-69
2023/05/14 15:51:37;;;;;;;;;;;;;;;;;;5070769;28;20007;-68
2023/05/14 15:54:03;;;;;;;;;;;;;;;;;;5070613;28;19995;-69
2023/05/14 15:56:29;;;;;;;;;;;;;;;;;;5070196;28;19909;-69
2023/05/14 15:59:33;;;;;;;;;;;;;;;;;;5111449;27;20299;-68
2023/05/14 16:02:00;;;;;;;;;;;;;;;;;;5111225;28;20380;-70
2023/05/14 16:04:26;;;;;;;;;;;;;;;;;;5110766;28;19908;-70
2023/05/14 16:06:52;;;;;;;;;;;;;;;;;;5111595;28;20368;-69
2023/05/14 16:09:18;;;;;;;;;;;;;;;;;;5111075;28;19955;-70
2023/05/14 16:13:37;;;;;;;;;;;;;;;;;;5173600;27;20370;-68
2023/05/14 16:16:03;;;;;;;;;;;;;;;;;;5173101;27;19911;-68
2023/05/14 16:21:43;;;;;;;;;;;;;;;;;;5091524;27;19916;-70
2023/05/14 16:24:09;;;;;;;;;;;;;;;;;;5090780;28;20027;-70
2023/05/14 16:26:35;;;;;;;;;;;;;;;;;;5090904;28;20356;-70
2023/05/14 16:29:01;;;;;;;;;;;;;;;;;;5090893;28;20007;-70
2023/05/14 16:31:27;;;;;;;;;;;;;;;;;;5090242;28;19915;-70
2023/05/14 16:33:53;;;;;;;;;;;;;;;;;;5090613;28;19920;-70
2023/05/14 16:36:19;;;;;;;;;;;;;;;;;;5090674;28;19908;-70
2023/05/14 16:38:47;;;;;;;;;;;;;;;;;;5090068;28;20003;-70
2023/05/14 16:41:31;;;;;;;;;;;;;;;;;;5131675;27;19919;-68
2023/05/14 16:43:57;;;;;;;;;;;;;;;;;;5131730;27;19911;-70
2023/05/14 16:46:23;;;;;;;;;;;;;;;;;;5131068;28;19908;-70
2023/05/14 16:48:49;;;;;;;;;;;;;;;;;;5131880;28;19995;-70
2023/05/14 16:51:15;;;;;;;;;;;;;;;;;;5131781;27;19939;-70
2023/05/14 16:59:02;;;;;;;;;;;;;;;;;;5090839;27;19923;-68
2023/05/14 17:01:28;;;;;;;;;;;;;;;;;;5090888;28;19912;-69
2023/05/14 17:04:40;;;;;;;;;;;;;;;;;;5111360;27;19916;-70
2023/05/14 17:07:06;;;;;;;;;;;;;;;;;;5110856;28;20350;-70
2023/05/14 17:09:32;;;;;;;;;;;;;;;;;;5111207;28;19962;-68
2023/05/14 17:12:55;;;;;;;;;;;;;;;;;;5112029;27;19920;-68
2023/05/14 17:15:21;;;;;;;;;;;;;;;;;;5110789;28;19912;-68
2023/05/14 17:17:47;;;;;;;;;;;;;;;;;;5111145;28;19908;-69
2023/05/14 17:20:12;;;;;;;;;;;;;;;;;;5110929;28;20344;-69
2023/05/14 17:29:54;;;;;;;;;;;;;;;;;;5090941;27;19917;-69
2023/05/14 17:36:41;;;;;;;;;;;;;;;;;;5111989;27;20359;-68
2023/05/14 17:39:08;;;;;;;;;;;;;;;;;;5109988;28;19912;-69
2023/05/14 17:41:33;;;;;;;;;;;;;;;;;;5110777;28;19908;-68
2023/05/14 17:43:59;;;;;;;;;;;;;;;;;;5111196;28;19965;-68
2023/05/14 17:48:05;;;;;;;;;;;;;;;;;;5091351;27;19913;-68
2023/05/14 17:50:31;;;;;;;;;;;;;;;;;;5090389;28;20003;-68
2023/05/14 17:52:57;;;;;;;;;;;;;;;;;;5090725;28;19943;-68
2023/05/14 17:57:58;;;;;;;;;;;;;;;;;;5091395;27;20386;-70
2023/05/14 18:00:24;;;;;;;;;;;;;;;;;;5090972;28;20006;-68
2023/05/14 18:02:50;;;;;;;;;;;;;;;;;;5090370;28;20345;-69
2023/05/14 18:05:16;;;;;;;;;;;;;;;;;;5090864;28;20386;-70
2023/05/14 18:07:42;;;;;;;;;;;;;;;;;;5091108;28;20284;-68
2023/05/14 18:10:08;;;;;;;;;;;;;;;;;;5090667;28;19955;-68
2023/05/14 18:12:34;;;;;;;;;;;;;;;;;;5090671;28;19940;-69
2023/05/14 18:15:00;;;;;;;;;;;;;;;;;;5090582;28;19954;-69
2023/05/14 18:19:35;;;;;;;;;;;;;;;;;;5111889;27;20022;-69
2023/05/14 18:22:01;;;;;;;;;;;;;;;;;;5111243;28;19915;-69
2023/05/14 18:29:47;;;;;;;;;;;;;;;;;;5091134;27;19916;-69
2023/05/14 18:32:13;;;;;;;;;;;;;;;;;;5090549;28;20325;-69
2023/05/14 18:41:14;;;;;;;;;;;;;;;;;;5091261;27;19935;-68
2023/05/14 18:43:40;;;;;;;;;;;;;;;;;;5091158;28;20345;-68
2023/05/14 18:46:06;;;;;;;;;;;;;;;;;;5090517;28;19999;-70
2023/05/14 18:48:32;;;;;;;;;;;;;;;;;;5091047;28;20287;-68
2023/05/14 18:54:26;;;;;;;;;;;;;;;;;;5091665;27;19923;-69
2023/05/14 18:57:41;;;;;;;;;;;;;;;;;;5153035;27;19921;-70
2023/05/14 19:00:07;;;;;;;;;;;;;;;;;;5152083;27;20289;-70
2023/05/14 19:02:33;;;;;;;;;;;;;;;;;;5152617;27;19907;-69
2023/05/14 19:04:59;;;;;;;;;;;;;;;;;;5152622;27;20403;-69
2023/05/14 19:07:26;;;;;;;;;;;;;;;;;;5152026;27;20329;-69
2023/05/14 19:09:52;;;;;;;;;;;;;;;;;;5152536;27;19949;-70
2023/05/14 19:12:18;;;;;;;;;;;;;;;;;;5152201;27;19907;-69
2023/05/14 19:14:44;;;;;;;;;;;;;;;;;;5151802;27;19908;-69
2023/05/14 19:17:10;;;;;;;;;;;;;;;;;;5152243;27;19916;-69
2023/05/14 19:23:14;;;;;;;;;;;;;;;;;;5131968;27;20010;-68
2023/05/14 19:25:40;;;;;;;;;;;;;;;;;;5131767;28;19947;-68
2023/05/14 19:29:00;;;;;;;;;;;;;;;;;;5070634;28;20278;-68
2023/05/14 19:31:26;;;;;;;;;;;;;;;;;;5070716;28;20003;-70
2023/05/14 19:36:19;;;;;;;;;;;;;;;;;;5111215;27;19916;-68
2023/05/14 19:38:45;;;;;;;;;;;;;;;;;;5111490;28;19918;-68
2023/05/14 19:41:34;;;;;;;;;;;;;;;;;;5090841;27;19916;-68
2023/05/14 19:44:00;;;;;;;;;;;;;;;;;;5090792;28;20324;-68
2023/05/14 19:46:26;;;;;;;;;;;;;;;;;;5090787;28;19909;-68
2023/05/14 19:50:12;;;;;;;;;;;;;;;;;;5091121;27;19916;-68
2023/05/14 19:52:38;;;;;;;;;;;;;;;;;;5090919;28;19995;-68
2023/05/14 19:55:04;;;;;;;;;;;;;;;;;;5090405;28;19909;-68
2023/05/14 19:58:02;;;;;;;;;;;;;;;;;;5051541;28;19924;-68
2023/05/14 20:02:40;;;;;;;;;;;;;;;;;;5090764;27;19916;-68
2023/05/14 20:07:12;;;;;;;;;;;;;;;;;;5112083;27;19916;-68
2023/05/14 20:13:35;;;;;;;;;;;;;;;;;;5152479;27;19938;-70
2023/05/14 20:16:01;;;;;;;;;;;;;;;;;;5151935;27;20372;-70
2023/05/14 20:21:06;;;;;;;;;;;;;;;;;;5152542;27;19979;-68
2023/05/14 20:23:32;;;;;;;;;;;;;;;;;;5152281;27;19912;-69
2023/05/14 20:26:00;;;;;;;;;;;;;;;;;;5152448;27;19908;-68
2023/05/14 20:28:26;;;;;;;;;;;;;;;;;;5152372;27;19907;-70
2023/05/14 20:30:53;;;;;;;;;;;;;;;;;;5151944;27;19908;-68